createdAt,value
2018-09-15T00:01:54.911Z,4.60
2018-09-15T00:07:24.591Z,4.08
2018-09-15T00:10:20.876Z,3.52
2018-09-15T00:19:06.752Z,4.47
2018-09-15T00:21:36.532Z,7.35
2018-09-15T00:24:08.469Z,3.08
2018-09-15T00:45:25.227Z,7.10
2018-09-15T00:48:08.267Z,3.67
2018-09-15T00:55:54.825Z,3.47
2018-09-15T00:58:23.739Z,3.95
2018-09-15T01:01:05.974Z,5.28
2018-09-15T01:03:57.286Z,4.95
2018-09-15T01:09:24.532Z,3.70
2018-09-15T01:15:03.347Z,4.00
2018-09-15T01:18:39.747Z,4.00
2018-09-15T01:21:25.384Z,6.28
2018-09-15T01:24:00.091Z,5.92
2018-09-15T01:29:37.770Z,5.20
2018-09-15T01:32:28.202Z,5.70
2018-09-15T01:35:03.483Z,4.67
2018-09-15T01:37:37.442Z,6.67
2018-09-15T01:40:13.755Z,5.28
2018-09-15T01:45:53.620Z,5.83
2018-09-15T01:51:24.187Z,7.72
2018-09-15T01:54:02.787Z,6.22
2018-09-15T01:59:25.127Z,6.45
2018-09-15T02:02:39.665Z,4.78
2018-09-15T02:08:14.045Z,7.75
2018-09-15T02:10:46.467Z,5.75
2018-09-15T02:37:56.914Z,7.43
2018-09-15T02:40:28.790Z,10.88
2018-09-15T02:45:46.246Z,5.90
2018-09-15T02:48:18.840Z,5.95
2018-09-15T02:50:51.384Z,7.08
2018-09-15T02:56:21.536Z,9.23
2018-09-15T03:01:42.339Z,9.03
2018-09-15T03:04:11.367Z,5.58
2018-09-15T03:12:34.941Z,4.55
2018-09-15T03:15:15.039Z,6.58
2018-09-15T03:20:42.712Z,6.70
2018-09-15T03:23:14.326Z,6.20
2018-09-15T03:39:03.304Z,4.27
2018-09-15T03:41:35.132Z,5.00
2018-09-15T03:49:52.780Z,10.17
2018-09-15T03:52:24.051Z,5.85
2018-09-15T03:54:53.815Z,2.92
2018-09-15T04:00:27.881Z,4.30
2018-09-15T04:03:34.583Z,6.35
2018-09-15T04:06:03.889Z,8.28
2018-09-15T04:08:55.861Z,2.58
2018-09-15T04:14:53.870Z,4.78
2018-09-15T04:20:22.336Z,4.30
2018-09-15T04:22:51.251Z,4.10
2018-09-15T04:25:20.798Z,4.28
2018-09-15T04:28:00.015Z,6.00
2018-09-15T04:30:35.418Z,4.47
2018-09-15T04:33:22.053Z,2.98
2018-09-15T04:36:55.682Z,3.47
2018-09-15T04:40:29.018Z,4.17
2018-09-15T04:46:16.257Z,3.20
2018-09-15T04:49:27.824Z,4.10
2018-09-15T04:55:42.089Z,4.10
2018-09-15T04:58:12.016Z,3.72
2018-09-15T05:00:48.359Z,3.35
2018-09-15T05:03:28.012Z,3.42
2018-09-15T05:06:03.032Z,5.58
2018-09-15T05:08:48.436Z,3.45
2018-09-15T05:14:12.589Z,4.10
2018-09-15T05:16:50.215Z,3.92
2018-09-15T05:57:01.524Z,6.53
2018-09-15T05:59:52.063Z,5.50
2018-09-15T06:02:33.366Z,5.22
2018-09-15T06:08:12.088Z,5.10
2018-09-15T06:10:54.289Z,3.40
2018-09-15T06:13:26.304Z,3.25
2018-09-15T06:15:55.161Z,7.60
2018-09-15T06:26:16.337Z,6.37
2018-09-15T06:29:10.011Z,4.08
2018-09-15T06:31:49.970Z,4.35
2018-09-15T06:34:52.274Z,6.92
2018-09-15T06:51:09.335Z,4.93
2018-09-15T06:53:50.633Z,4.67
2018-09-15T06:59:39.722Z,4.78
2018-09-15T07:02:08.802Z,6.25
2018-09-15T07:04:37.538Z,5.08
2018-09-15T07:07:21.574Z,3.60
2018-09-15T07:09:51.548Z,5.12
2018-09-15T07:12:36.198Z,4.70
2018-09-15T07:18:00.083Z,4.90
2018-09-15T07:20:28.890Z,3.90
2018-09-15T07:23:02.255Z,3.72
2018-09-15T07:25:52.866Z,4.47
2018-09-15T07:31:16.061Z,3.40
2018-09-15T07:33:54.118Z,4.28
2018-09-15T07:36:24.299Z,5.55
2018-09-15T07:38:55.537Z,3.40
2018-09-15T07:41:28.050Z,4.85
2018-09-15T07:44:03.323Z,3.83
2018-09-15T07:46:33.862Z,4.67
2018-09-15T07:49:20.559Z,3.67
2018-09-15T07:51:50.637Z,6.28
2018-09-15T07:54:24.898Z,4.05
2018-09-15T08:03:06.978Z,3.67
2018-09-15T08:08:52.203Z,5.12
2018-09-15T08:11:25.074Z,4.15
2018-09-15T08:14:10.298Z,3.35
2018-09-15T08:20:52.153Z,5.22
2018-09-15T08:26:03.432Z,6.70
2018-09-15T08:28:42.038Z,2.47
2018-09-15T08:31:15.276Z,4.33
2018-09-15T08:33:51.792Z,6.85
2018-09-15T08:42:28.832Z,3.58
2018-09-15T08:44:58.367Z,5.47
2018-09-15T08:47:33.367Z,4.72
2018-09-15T08:50:08.804Z,1.98
2018-09-15T08:55:57.389Z,7.85
2018-09-15T09:01:26.575Z,4.07
2018-09-15T09:04:08.816Z,3.52
2018-09-15T09:06:43.530Z,3.77
2018-09-15T09:12:25.130Z,2.87
2018-09-15T09:15:08.998Z,5.65
2018-09-15T09:17:38.611Z,4.37
2018-09-15T09:20:07.979Z,3.10
2018-09-15T09:22:37.410Z,4.72
2018-09-15T09:31:38.337Z,2.70
2018-09-15T09:34:07.235Z,4.17
2018-09-15T09:36:36.652Z,4.40
2018-09-15T09:39:09.189Z,4.87
2018-09-15T09:41:38.374Z,4.22
2018-09-15T09:44:07.211Z,2.02
2018-09-15T09:49:41.235Z,4.47
2018-09-15T09:52:26.833Z,6.12
2018-09-15T09:55:05.496Z,3.70
2018-09-15T09:57:51.985Z,3.62
2018-09-15T10:00:26.017Z,2.87
2018-09-15T10:02:54.874Z,4.62
2018-09-15T10:10:15.055Z,2.90
2018-09-15T10:12:46.911Z,3.15
2018-09-15T10:15:16.576Z,4.75
2018-09-15T10:17:49.910Z,4.70
2018-09-15T10:20:18.930Z,4.95
2018-09-15T10:22:49.401Z,2.08
2018-09-15T10:25:18.091Z,3.25
2018-09-15T10:27:50.842Z,3.85
2018-09-15T10:30:22.894Z,4.40
2018-09-15T10:32:53.985Z,3.30
2018-09-15T10:35:31.734Z,3.33
2018-09-15T10:38:08.044Z,4.22
2018-09-15T10:40:44.865Z,4.03
2018-09-15T10:43:13.966Z,4.65
2018-09-15T10:45:42.634Z,3.45
2018-09-15T10:48:12.073Z,4.80
2018-09-15T10:54:49.623Z,4.77
2018-09-15T11:02:43.632Z,3.83
2018-09-15T11:05:13.797Z,5.80
2018-09-15T11:07:44.762Z,5.20
2018-09-15T11:13:19.168Z,3.13
2018-09-15T11:15:51.681Z,3.20
2018-09-15T11:18:32.139Z,4.72
2018-09-15T11:21:01.850Z,3.47
2018-09-15T11:23:31.915Z,2.75
2018-09-15T11:26:02.090Z,4.53
2018-09-15T11:28:32.534Z,3.27
2018-09-15T11:31:01.379Z,4.10
2018-09-15T11:37:22.709Z,4.27
2018-09-15T11:40:03.848Z,6.58
2018-09-15T11:42:33.717Z,3.47
2018-09-15T11:45:05.559Z,7.37
2018-09-15T11:47:37.848Z,2.60
2018-09-15T11:50:10.007Z,2.80
2018-09-15T11:52:38.644Z,5.33
2018-09-15T11:55:07.636Z,2.87
2018-09-15T11:57:37.048Z,3.15
2018-09-15T12:00:13.757Z,5.65
2018-09-15T12:02:49.400Z,4.33
2018-09-15T12:05:18.124Z,2.47
2018-09-15T12:07:47.323Z,4.45
2018-09-15T12:10:16.067Z,2.80
2018-09-15T12:12:46.484Z,3.50
2018-09-15T12:18:12.191Z,3.95
2018-09-15T12:20:49.149Z,5.45
2018-09-15T12:23:18.895Z,5.08
2018-09-15T12:25:48.100Z,2.95
2018-09-15T12:31:46.009Z,2.90
2018-09-15T12:34:14.731Z,3.92
2018-09-15T12:36:44.078Z,4.42
2018-09-15T12:39:12.959Z,2.98
2018-09-15T12:41:41.719Z,4.00
2018-09-15T12:44:10.779Z,2.58
2018-09-15T12:46:41.716Z,2.30
2018-09-15T12:49:11.027Z,4.47
2018-09-15T12:51:40.296Z,4.20
2018-09-15T13:18:11.729Z,5.90
2018-09-15T13:20:41.889Z,3.80
2018-09-15T13:23:10.294Z,4.22
2018-09-15T13:25:41.244Z,1.82
2018-09-15T13:28:09.702Z,2.50
2018-09-15T13:30:38.765Z,5.05
2018-09-15T13:33:07.434Z,3.67
2018-09-15T13:35:35.987Z,2.60
2018-09-15T13:38:04.735Z,3.10
2018-09-15T13:40:43.649Z,2.87
2018-09-15T13:43:12.330Z,3.55
2018-09-15T13:45:40.735Z,2.35
2018-09-15T13:48:09.111Z,3.92
2018-09-15T13:50:37.672Z,7.53
2018-09-15T13:55:47.923Z,4.65
2018-09-15T13:58:16.309Z,3.20
2018-09-15T14:00:47.469Z,4.40
2018-09-15T14:03:16.061Z,2.47
2018-09-15T14:05:45.134Z,4.97
2018-09-15T14:08:19.402Z,3.87
2018-09-15T14:10:47.852Z,3.75
2018-09-15T14:13:16.264Z,4.35
2018-09-15T14:16:48.044Z,2.52
2018-09-15T14:40:06.430Z,2.90
2018-09-15T14:42:35.286Z,4.42
2018-09-15T14:45:03.942Z,2.70
2018-09-15T14:47:36.611Z,2.72
2018-09-15T14:50:05.131Z,4.75
2018-09-15T14:52:37.870Z,4.05
2018-09-15T14:55:12.115Z,2.60
2018-09-15T14:57:41.638Z,3.08
2018-09-15T15:00:10.338Z,2.85
2018-09-15T15:02:38.856Z,4.62
2018-09-15T15:05:09.452Z,2.33
2018-09-15T15:07:38.005Z,5.28
2018-09-15T15:10:09.339Z,4.42
2018-09-15T15:12:40.507Z,3.95
2018-09-15T15:15:09.685Z,4.33
2018-09-15T15:17:39.207Z,5.28
2018-09-15T15:20:07.757Z,3.77
2018-09-15T15:22:36.817Z,6.35
2018-09-15T15:25:07.606Z,4.90
2018-09-15T15:27:41.667Z,3.65
2018-09-15T15:30:10.315Z,4.50
2018-09-15T15:32:39.327Z,4.42
2018-09-15T15:35:12.510Z,4.50
2018-09-15T15:37:41.555Z,3.92
2018-09-15T15:40:11.924Z,4.92
2018-09-15T15:42:40.754Z,4.62
2018-09-15T15:48:01.641Z,3.97
2018-09-15T15:50:31.785Z,5.62
2018-09-15T15:53:02.417Z,7.40
2018-09-15T15:55:34.522Z,4.12
2018-09-15T15:58:03.347Z,3.45
2018-09-15T16:00:35.175Z,4.90
2018-09-15T16:05:53.596Z,4.67
2018-09-15T16:08:22.346Z,3.90
2018-09-15T16:13:40.848Z,6.08
2018-09-15T16:16:09.707Z,6.37
2018-09-15T16:18:47.602Z,4.10
2018-09-15T16:21:16.894Z,4.58
2018-09-15T16:23:45.570Z,3.12
2018-09-15T16:26:14.159Z,3.05
2018-09-15T16:28:42.802Z,6.55
2018-09-15T16:31:11.208Z,5.37
2018-09-15T16:33:40.054Z,4.10
2018-09-15T16:36:08.989Z,6.72
2018-09-15T16:38:37.679Z,7.12
2018-09-15T16:41:09.112Z,4.00
2018-09-15T16:43:37.818Z,3.87
2018-09-15T16:46:06.690Z,3.87
2018-09-15T16:48:35.199Z,5.72
2018-09-15T16:51:06.646Z,4.95
2018-09-15T16:53:35.157Z,2.80
2018-09-15T16:56:03.924Z,4.55
2018-09-15T16:58:34.082Z,2.72
2018-09-15T17:01:02.783Z,5.30
2018-09-15T17:03:31.367Z,3.58
2018-09-15T17:06:01.134Z,4.85
2018-09-15T17:08:44.524Z,5.22
2018-09-15T17:11:14.627Z,5.30
2018-09-15T17:13:44.958Z,3.58
2018-09-15T17:16:20.802Z,2.80
2018-09-15T17:35:32.150Z,4.63
2018-09-15T17:38:02.093Z,7.62
2018-09-15T17:40:30.867Z,10.78
2018-09-15T17:42:59.833Z,7.35
2018-09-15T17:45:28.444Z,8.10
2018-09-15T17:47:57.113Z,11.57
2018-09-15T17:50:32.022Z,7.83
2018-09-15T17:53:04.736Z,5.72
2018-09-15T17:55:36.808Z,9.18
2018-09-15T17:58:06.461Z,6.45
2018-09-15T18:00:35.421Z,8.83
2018-09-15T18:03:10.167Z,8.68
2018-09-15T18:05:39.638Z,8.95
2018-09-15T18:08:08.667Z,6.47
2018-09-15T18:48:06.866Z,6.57
2018-09-15T18:50:47.435Z,9.50
2018-09-15T18:57:54.146Z,13.88
2018-09-15T19:03:46.696Z,11.28
2018-09-15T19:10:14.075Z,7.80
2018-09-15T19:15:39.254Z,9.90
2018-09-15T19:21:19.398Z,9.18
2018-09-15T19:27:40.678Z,8.60
2018-09-15T19:34:26.331Z,8.55
2018-09-15T19:43:42.918Z,7.33
2018-09-15T19:46:31.270Z,13.68
2018-09-15T19:49:10.054Z,7.42
2018-09-15T19:52:09.973Z,10.80
2018-09-15T19:54:41.967Z,7.25
2018-09-15T20:00:28.409Z,11.88
2018-09-15T20:03:00.900Z,12.50
2018-09-15T20:05:33.043Z,7.90
2018-09-15T20:11:02.725Z,8.93
2018-09-15T20:13:37.644Z,5.55
2018-09-15T20:16:05.312Z,10.03
2018-09-15T20:26:35.800Z,6.58
2018-09-15T20:29:10.559Z,10.00
2018-09-15T20:31:53.294Z,7.05
2018-09-15T20:34:33.399Z,9.08
2018-09-15T20:40:20.630Z,8.45
2018-09-15T20:45:45.948Z,7.30
2018-09-15T20:48:21.092Z,7.90
2018-09-15T20:51:12.910Z,7.12
2018-09-15T20:54:02.772Z,8.68
2018-09-15T20:56:32.550Z,8.65
2018-09-15T20:59:03.158Z,9.30
2018-09-15T21:01:32.167Z,9.78
2018-09-15T21:04:01.089Z,7.47
2018-09-15T21:06:54.473Z,8.83
2018-09-15T21:09:48.929Z,12.40
2018-09-15T21:12:18.136Z,9.63
2018-09-15T21:15:03.104Z,7.45
2018-09-15T21:17:39.595Z,10.95
2018-09-15T21:23:13.519Z,10.25
2018-09-15T21:25:43.751Z,11.50
2018-09-15T21:28:12.616Z,7.45
2018-09-15T21:30:42.593Z,10.08
2018-09-15T21:33:16.289Z,8.53
2018-09-15T21:35:44.999Z,9.68
2018-09-15T21:38:18.203Z,9.15
2018-09-15T21:40:47.026Z,10.00
2018-09-15T21:43:15.635Z,8.60
2018-09-15T21:48:22.707Z,10.55
2018-09-15T21:51:23.011Z,8.38
2018-09-15T21:54:05.963Z,8.03
2018-09-15T21:56:40.795Z,10.53
2018-09-15T22:02:12.934Z,8.23
2018-09-15T22:07:48.822Z,12.65
2018-09-15T22:10:27.740Z,11.70
2018-09-15T22:13:19.389Z,10.32
2018-09-15T22:15:53.552Z,7.78
2018-09-15T22:18:23.424Z,11.05
2018-09-15T22:20:53.035Z,9.78
2018-09-15T22:29:49.175Z,8.98
2018-09-15T22:32:52.744Z,10.10
2018-09-15T22:35:21.974Z,11.45
2018-09-15T22:37:52.713Z,9.78
2018-09-15T22:43:08.035Z,12.83
2018-09-15T22:48:20.285Z,9.07
2018-09-15T22:51:04.134Z,10.63
2018-09-15T22:53:48.962Z,8.25
2018-09-15T22:56:20.512Z,11.73
2018-09-15T23:17:05.259Z,8.98
2018-09-15T23:19:35.985Z,9.33
2018-09-15T23:25:14.828Z,7.87
2018-09-15T23:27:55.827Z,9.78
2018-09-15T23:31:40.156Z,9.40
2018-09-15T23:34:52.146Z,12.30
2018-09-15T23:37:23.761Z,9.68
2018-09-15T23:39:54.070Z,13.05
2018-09-15T23:42:28.099Z,9.60
2018-09-15T23:47:50.643Z,8.00
2018-09-15T23:50:24.300Z,8.75
2018-09-15T23:52:53.960Z,10.38
